createdAt,value
2022-10-07T00:07:39.650Z,0.00
2022-10-07T00:22:40.260Z,0.00
2022-10-07T00:37:40.412Z,0.00
2022-10-07T00:52:40.484Z,0.00
2022-10-07T01:07:41.392Z,0.00
2022-10-07T01:22:42.721Z,0.00
2022-10-07T01:37:43.781Z,0.00
2022-10-07T01:52:44.509Z,0.00
2022-10-07T02:07:44.985Z,0.00
2022-10-07T02:22:46.170Z,0.00
2022-10-07T02:37:47.037Z,0.00
2022-10-07T02:52:47.992Z,0.00
2022-10-07T03:07:48.620Z,0.00
2022-10-07T03:22:49.236Z,0.00
2022-10-07T03:37:49.349Z,0.00
2022-10-07T03:52:49.430Z,0.00
2022-10-07T04:07:49.572Z,0.00
2022-10-07T04:22:49.679Z,0.00
2022-10-07T04:37:49.785Z,0.00
2022-10-07T04:52:49.909Z,8.00
2022-10-07T05:07:50.016Z,68.00
2022-10-07T05:22:50.204Z,320.00
2022-10-07T05:37:51.463Z,768.00
2022-10-07T05:52:51.384Z,1264.00
2022-10-07T06:07:51.453Z,1804.00
2022-10-07T06:22:51.591Z,2240.00
2022-10-07T06:37:52.005Z,2456.00
2022-10-07T06:52:52.466Z,2816.00
2022-10-07T07:07:52.540Z,3376.00
2022-10-07T07:22:52.626Z,4064.00
2022-10-07T07:37:52.695Z,4480.00
2022-10-07T07:52:57.172Z,4768.00
2022-10-07T08:07:57.462Z,9840.00
2022-10-07T08:22:59.067Z,17696.00
2022-10-07T08:37:59.736Z,21728.00
2022-10-07T08:52:59.846Z,29824.00
2022-10-07T09:07:59.951Z,36672.00
2022-10-07T09:22:59.931Z,41792.00
2022-10-07T09:38:00.031Z,41600.00
2022-10-07T09:53:00.628Z,63552.00
2022-10-07T10:08:00.732Z,54912.00
2022-10-07T10:23:00.826Z,68352.00
2022-10-07T10:38:01.265Z,68480.00
2022-10-07T10:53:01.681Z,76384.00
2022-10-07T11:08:02.320Z,81088.00
2022-10-07T11:23:02.924Z,84064.00
2022-10-07T11:38:03.330Z,73536.00
2022-10-07T11:53:03.772Z,98208.00
2022-10-07T12:08:04.401Z,98720.00
2022-10-07T12:23:04.964Z,89792.00
2022-10-07T12:38:05.559Z,101440.00
2022-10-07T12:53:05.720Z,105632.00
2022-10-07T13:08:05.799Z,85408.00
2022-10-07T13:23:05.921Z,97632.00
2022-10-07T13:38:06.061Z,95360.00
2022-10-07T13:53:06.181Z,90432.00
2022-10-07T14:08:06.238Z,79168.00
2022-10-07T14:23:06.394Z,71680.00
2022-10-07T14:38:06.798Z,77856.00
2022-10-07T14:53:06.779Z,46144.00
2022-10-07T15:08:06.857Z,4900.00
2022-10-07T15:23:07.425Z,3164.00
2022-10-07T15:38:08.024Z,2324.00
2022-10-07T15:53:08.596Z,1788.00
2022-10-07T16:08:09.266Z,1124.00
2022-10-07T16:23:09.309Z,480.00
2022-10-07T16:38:09.408Z,112.00
2022-10-07T16:53:09.969Z,12.00
2022-10-07T17:08:10.095Z,0.00
2022-10-07T17:23:10.201Z,0.00
2022-10-07T17:38:10.348Z,0.00
2022-10-07T17:53:10.487Z,0.00
2022-10-07T18:08:11.796Z,0.00
2022-10-07T18:23:11.927Z,0.00
2022-10-07T18:38:12.050Z,0.00
2022-10-07T18:53:12.134Z,0.00
2022-10-07T19:08:12.265Z,0.00
2022-10-07T19:23:12.371Z,0.00
2022-10-07T19:38:13.017Z,0.00
2022-10-07T19:53:13.114Z,0.00
2022-10-07T20:08:13.214Z,0.00
2022-10-07T20:23:13.329Z,0.00
2022-10-07T20:38:13.467Z,0.00
2022-10-07T20:53:13.523Z,0.00
2022-10-07T21:08:13.641Z,0.00
2022-10-07T21:23:14.254Z,0.00
2022-10-07T21:38:14.648Z,0.00
2022-10-07T21:53:14.543Z,0.00
2022-10-07T22:08:14.675Z,0.00
2022-10-07T22:23:14.761Z,0.00
2022-10-07T22:38:14.942Z,0.00
2022-10-07T22:53:15.047Z,0.00
2022-10-07T23:08:15.132Z,0.00
2022-10-07T23:23:15.719Z,0.00
2022-10-07T23:38:15.891Z,0.00
2022-10-07T23:53:16.013Z,0.00
